Time;durP1;ratioP1;P1;durP2;ratioP2;P2;SDS_P1;SDS_P2;PMS_P1;PMS_P2;Temp;Humidity;BMP_temperature;BMP_pressure;BME280_temperature;BME280_humidity;BME280_pressure;Samples;Min_cycle;Max_cycle;Signal;HPM_P1;HPM_P2
2021/01/06 00:00:09;;;;;;;7.13;4.97;;;;;;;6.16;69.49;99183.78;4902039;29;20027;-76
2021/01/06 00:02:38;;;;;;;6.90;4.25;;;;;;;6.15;69.65;99196.28;4902368;29;20032;-76
2021/01/06 00:05:07;;;;;;;5.30;3.88;;;;;;;6.15;70.12;99198.94;4902216;29;20382;-75
2021/01/06 00:07:32;;;;;;;7.03;4.35;;;;;;;6.14;70.04;99210.59;4902697;29;20452;-76
2021/01/06 00:09:58;;;;;;;6.15;3.72;;;;;;;6.14;69.43;99207.94;4887919;29;20051;-76
2021/01/06 00:12:23;;;;;;;8.90;4.47;;;;;;;6.12;69.35;99211.88;4887826;29;20068;-76
2021/01/06 00:14:49;;;;;;;8.93;4.13;;;;;;;6.12;69.61;99210.03;4903593;29;20494;-77
2021/01/06 00:17:14;;;;;;;6.68;3.80;;;;;;;6.11;69.66;99204.97;4903924;29;20091;-79
2021/01/06 00:19:39;;;;;;;4.55;2.92;;;;;;;6.11;69.27;99207.63;4903950;29;20524;-78
2021/01/06 00:22:05;;;;;;;5.05;3.10;;;;;;;6.08;68.95;99199.09;4908616;29;20091;-79
2021/01/06 00:24:30;;;;;;;7.85;3.05;;;;;;;6.08;69.39;99203.59;4909571;29;20036;-79
2021/01/06 00:26:55;;;;;;;3.97;2.30;;;;;;;6.07;69.17;99204.66;4917958;29;20020;-80
2021/01/06 00:29:21;;;;;;;5.20;2.47;;;;;;;6.06;69.22;99214.44;4905961;29;20256;-76
2021/01/06 00:31:46;;;;;;;3.42;2.50;;;;;;;6.05;69.05;99223.47;4898301;29;20031;-77
2021/01/06 00:34:13;;;;;;;4.40;3.10;;;;;;;6.04;69.32;99221.03;4914884;29;20038;-77
2021/01/06 00:36:38;;;;;;;6.97;3.50;;;;;;;6.02;69.38;99223.94;4898838;29;20028;-78
2021/01/06 00:39:05;;;;;;;6.57;3.50;;;;;;;6.03;69.23;99224.75;4898400;29;20389;-79
2021/01/06 00:41:33;;;;;;;5.45;3.42;;;;;;;5.99;69.34;99213.00;4898850;29;20585;-78
2021/01/06 00:44:00;;;;;;;5.95;2.83;;;;;;;5.99;69.54;99226.28;4898455;29;20067;-78
2021/01/06 00:46:31;;;;;;;5.20;2.63;;;;;;;5.97;69.34;99231.00;4898365;29;20040;-77
2021/01/06 00:48:58;;;;;;;6.80;3.42;;;;;;;5.92;69.04;99237.03;4898525;29;20024;-78
2021/01/06 00:51:23;;;;;;;5.75;3.75;;;;;;;5.91;69.15;99225.59;4898422;29;20024;-78
2021/01/06 00:53:49;;;;;;;4.07;3.15;;;;;;;5.86;68.96;99220.22;4898197;29;20032;-78
2021/01/06 00:56:14;;;;;;;4.13;2.63;;;;;;;5.84;68.82;99219.63;4898698;29;20046;-78
2021/01/06 00:58:39;;;;;;;6.15;3.85;;;;;;;5.82;69.73;99226.25;4898512;29;20090;-78
2021/01/06 01:01:05;;;;;;;5.65;2.42;;;;;;;5.79;69.16;99224.06;4891746;29;20039;-81
2021/01/06 01:03:30;;;;;;;3.78;2.75;;;;;;;5.78;69.26;99215.28;4881312;29;20618;-79
2021/01/06 01:05:56;;;;;;;4.57;2.50;;;;;;;5.78;69.58;99217.94;4879566;29;20077;-77
2021/01/06 01:08:21;;;;;;;3.92;2.03;;;;;;;5.77;69.75;99227.78;4879785;29;20028;-79
2021/01/06 01:10:49;;;;;;;8.95;4.28;;;;;;;5.77;68.78;99221.63;4881219;29;20055;-79
2021/01/06 01:13:24;;;;;;;12.05;4.82;;;;;;;5.74;68.85;99217.63;4897487;29;20031;-80
2021/01/06 01:16:00;;;;;;;9.55;4.75;;;;;;;5.73;69.58;99228.47;4897975;29;20152;-79
2021/01/06 01:18:28;;;;;;;13.98;5.00;;;;;;;5.72;68.83;99226.88;4898270;29;20090;-80
2021/01/06 01:20:56;;;;;;;8.10;4.13;;;;;;;5.69;68.74;99230.81;4898159;29;20039;-79
2021/01/06 01:23:24;;;;;;;9.55;4.70;;;;;;;5.67;69.20;99222.28;4898346;29;20390;-79
2021/01/06 01:25:50;;;;;;;4.28;3.08;;;;;;;5.68;68.52;99226.53;4897970;29;20032;-81
2021/01/06 01:28:18;;;;;;;5.22;3.47;;;;;;;5.67;68.94;99214.31;4895319;29;20488;-80
2021/01/06 01:30:44;;;;;;;5.30;3.22;;;;;;;5.68;68.36;99221.22;4885652;29;20031;-79
2021/01/06 01:33:11;;;;;;;6.57;3.50;;;;;;;5.67;68.46;99232.88;4897781;29;20516;-79
2021/01/06 01:35:36;;;;;;;6.32;3.70;;;;;;;5.69;68.76;99235.28;4897580;29;20119;-79
2021/01/06 01:38:31;;;;;;;4.50;3.22;;;;;;;5.71;69.03;99234.03;4914420;29;20088;-82
2021/01/06 01:41:09;;;;;;;6.38;3.65;;;;;;;5.73;68.96;99229.28;4882726;29;20533;-80
2021/01/06 01:43:36;;;;;;;6.35;3.53;;;;;;;5.77;68.55;99230.44;4895137;29;20021;-80
2021/01/06 01:46:01;;;;;;;3.95;2.67;;;;;;;5.81;68.63;99224.63;4903328;29;20028;-79
2021/01/06 01:48:26;;;;;;;5.65;2.80;;;;;;;5.81;68.86;99236.06;4914926;29;20023;-80
2021/01/06 01:50:55;;;;;;;11.65;3.83;;;;;;;5.82;68.42;99223.59;4897902;29;20036;-80
2021/01/06 01:53:30;;;;;;;6.10;3.42;;;;;;;5.80;68.83;99217.69;4898365;29;20020;-78
2021/01/06 01:55:57;;;;;;;6.57;3.42;;;;;;;5.83;68.84;99218.03;4882416;29;20034;-80
2021/01/06 01:58:26;;;;;;;4.25;2.88;;;;;;;5.83;68.27;99217.22;4879292;29;20139;-80
2021/01/06 02:00:54;;;;;;;8.27;4.72;;;;;;;5.78;68.61;99217.94;4883775;29;20036;-80
2021/01/06 02:03:34;;;;;;;15.43;5.70;;;;;;;5.75;69.06;99226.41;4897688;29;20039;-80
2021/01/06 02:17:48;;;;;;;12.30;6.07;;;;;;;5.60;69.53;99230.41;5784260;23;20048;-81
2021/01/06 02:27:48;;;;;;;10.95;5.32;;;;;;;5.64;69.40;99224.59;4919852;29;20067;-80
2021/01/06 02:30:16;;;;;;;10.57;6.07;;;;;;;5.64;69.46;99228.06;4886732;29;20040;-80
2021/01/06 02:32:42;;;;;;;10.60;4.90;;;;;;;5.65;69.73;99224.38;4883897;29;20130;-78
2021/01/06 02:35:09;;;;;;;7.90;3.95;;;;;;;5.69;69.71;99230.00;4882495;29;20056;-78
2021/01/06 02:37:36;;;;;;;8.30;4.60;;;;;;;5.69;69.91;99233.47;4889049;29;20017;-80
2021/01/06 02:40:03;;;;;;;8.20;4.50;;;;;;;5.71;69.71;99226.06;4900845;29;20047;-80
2021/01/06 02:42:28;;;;;;;10.73;5.00;;;;;;;5.73;69.65;99221.31;4900843;29;20024;-79
2021/01/06 02:44:54;;;;;;;11.20;6.15;;;;;;;5.76;69.27;99228.00;4901584;29;20046;-80
2021/01/06 02:47:19;;;;;;;12.00;6.07;;;;;;;5.80;69.40;99223.00;4898096;29;20474;-79
2021/01/06 02:49:46;;;;;;;8.32;5.22;;;;;;;5.83;69.51;99230.50;4899594;29;20036;-81
2021/01/06 02:57:41;;;;;;;9.57;5.90;;;;;;;5.82;69.15;99247.47;5063950;23;20055;-80
2021/01/06 03:00:07;;;;;;;8.40;4.93;;;;;;;5.81;69.00;99248.50;4902852;29;20119;-80
2021/01/06 03:02:33;;;;;;;10.38;5.53;;;;;;;5.81;69.62;99246.69;4904337;29;20035;-80
2021/01/06 03:05:15;;;;;;;6.65;3.97;;;;;;;5.81;69.54;99236.06;4903570;29;20092;-81
2021/01/06 03:07:41;;;;;;;7.47;4.47;;;;;;;5.79;69.49;99232.84;4900742;29;20048;-81
2021/01/06 03:10:12;;;;;;;6.43;4.50;;;;;;;5.79;69.34;99230.19;4906982;29;20036;-79
2021/01/06 03:12:38;;;;;;;8.18;4.68;;;;;;;5.78;69.49;99225.91;4903934;29;20024;-81
2021/01/06 03:15:04;;;;;;;13.07;5.28;;;;;;;5.76;69.46;99228.00;4902015;29;20091;-79
2021/01/06 03:17:31;;;;;;;6.00;2.85;;;;;;;5.74;68.98;99230.09;4901243;29;20449;-81
2021/01/06 03:20:07;;;;;;;4.18;3.00;;;;;;;5.73;68.84;99237.22;4911453;29;20059;-83
2021/01/06 03:22:39;;;;;;;3.88;2.63;;;;;;;5.75;69.24;99234.38;4902402;29;20028;-81
2021/01/06 03:25:09;;;;;;;5.18;3.03;;;;;;;5.77;69.15;99248.19;4901182;29;20061;-79
2021/01/06 03:27:35;;;;;;;3.97;2.72;;;;;;;5.77;68.62;99246.34;4900779;29;20032;-80
2021/01/06 03:30:06;;;;;;;6.78;3.13;;;;;;;5.82;68.69;99247.47;4905660;29;20043;-82
2021/01/06 03:32:45;;;;;;;4.07;2.88;;;;;;;5.84;68.45;99240.09;4894005;29;20032;-81
2021/01/06 03:35:20;;;;;;;3.70;2.50;;;;;;;5.86;68.20;99224.69;4882633;29;20115;-81
2021/01/06 03:37:52;;;;;;;4.88;2.47;;;;;;;5.89;68.29;99229.53;4886512;29;20027;-80
2021/01/06 03:40:40;;;;;;;4.45;2.40;;;;;;;5.91;67.83;99240.72;4919291;29;20481;-77
2021/01/06 03:43:09;;;;;;;4.15;2.58;;;;;;;5.92;68.27;99231.72;4901089;29;20032;-81
2021/01/06 03:45:38;;;;;;;5.88;3.38;;;;;;;5.93;68.26;99235.97;4906332;29;20031;-81
2021/01/06 03:48:31;;;;;;;9.70;4.47;;;;;;;5.94;68.54;99232.28;4910060;29;20480;-82
2021/01/06 03:51:17;;;;;;;12.55;5.15;;;;;;;5.91;68.43;99233.56;4901093;29;20036;-79
2021/01/06 03:53:44;;;;;;;8.93;4.95;;;;;;;5.92;68.70;99235.19;4910190;29;20035;-82
2021/01/06 03:56:23;;;;;;;6.80;4.57;;;;;;;5.89;68.60;99235.66;4906264;29;20103;-80
2021/01/06 03:59:14;;;;;;;11.18;4.13;;;;;;;5.88;68.39;99243.84;4922162;28;20046;-81
2021/01/06 04:02:09;;;;;;;6.95;4.78;;;;;;;5.87;68.71;99239.59;4918175;29;20060;-82
2021/01/06 04:04:43;;;;;;;9.90;5.05;;;;;;;5.83;68.44;99233.94;4916520;29;20019;-80
2021/01/06 04:07:48;;;;;;;7.43;4.50;;;;;;;5.82;68.49;99232.34;4918965;29;20044;-81
2021/01/06 04:13:13;;;;;;;4.80;3.15;;;;;;;5.79;68.12;99237.34;4914406;29;20068;-80
2021/01/06 04:15:38;;;;;;;5.43;2.72;;;;;;;5.74;67.46;99236.19;4881693;29;20045;-81
2021/01/06 04:18:06;;;;;;;5.75;3.63;;;;;;;5.71;67.79;99236.69;4895069;29;20099;-81
2021/01/06 04:20:41;;;;;;;4.63;2.80;;;;;;;5.69;67.56;99233.47;4895043;29;20013;-82
2021/01/06 04:23:26;;;;;;;3.50;2.55;;;;;;;5.67;67.59;99237.41;4883459;29;20040;-82
2021/01/06 04:25:52;;;;;;;5.10;3.17;;;;;;;5.66;67.99;99241.09;4884980;29;20116;-78
2021/01/06 04:28:24;;;;;;;5.35;3.00;;;;;;;5.64;67.59;99229.91;4884111;29;20036;-78
2021/01/06 04:30:54;;;;;;;6.78;4.35;;;;;;;5.60;67.82;99235.69;4878834;29;20029;-79
2021/01/06 04:33:27;;;;;;;3.72;2.40;;;;;;;5.56;67.72;99231.91;4867627;29;20722;-78
2021/01/06 04:35:54;;;;;;;4.03;2.40;;;;;;;5.58;67.58;99237.78;4884269;29;20040;-80
2021/01/06 04:38:26;;;;;;;5.68;3.33;;;;;;;5.56;67.52;99228.44;4889347;29;20021;-80
2021/01/06 04:40:59;;;;;;;10.68;4.40;;;;;;;5.57;67.47;99241.47;4942409;23;20043;-79
2021/01/06 04:43:27;;;;;;;5.22;4.00;;;;;;;5.56;67.58;99245.16;4918953;29;20509;-78
2021/01/06 04:46:37;;;;;;;6.53;4.22;;;;;;;5.60;68.06;99238.34;4904529;29;20127;-80
2021/01/06 04:49:06;;;;;;;6.28;3.95;;;;;;;5.60;68.35;99245.50;4884039;29;20046;-79
2021/01/06 04:51:48;;;;;;;9.07;4.47;;;;;;;5.65;68.45;99258.06;4902593;29;20033;-78
2021/01/06 04:54:24;;;;;;;9.50;5.90;;;;;;;5.65;68.43;99244.78;4900956;29;20047;-77
2021/01/06 04:57:13;;;;;;;14.57;7.57;;;;;;;5.67;68.55;99240.84;4899517;29;20462;-79
2021/01/06 04:59:42;;;;;;;16.67;8.75;;;;;;;5.67;68.55;99243.50;4867592;29;20470;-80
2021/01/06 05:02:41;;;;;;;14.07;8.20;;;;;;;5.68;68.62;99246.97;4904447;29;20060;-80
2021/01/06 05:05:44;;;;;;;9.82;6.07;;;;;;;5.67;68.38;99248.00;4908254;29;20040;-83
2021/01/06 05:08:31;;;;;;;7.40;5.50;;;;;;;5.65;68.73;99242.97;4918437;29;20179;-79
2021/01/06 05:11:31;;;;;;;4.97;3.97;;;;;;;5.64;68.00;99237.88;4915239;29;20021;-79
2021/01/06 05:14:02;;;;;;;5.85;3.30;;;;;;;5.64;68.02;99244.00;4908342;29;20037;-79
2021/01/06 05:16:35;;;;;;;13.82;4.68;;;;;;;5.65;68.12;99245.59;4892353;29;20032;-79
2021/01/06 05:19:07;;;;;;;14.50;5.72;;;;;;;5.64;68.73;99245.81;4886821;29;20087;-80
2021/01/06 05:21:33;;;;;;;11.30;6.28;;;;;;;5.64;69.16;99248.47;4884047;29;20076;-79
2021/01/06 05:24:28;;;;;;;16.15;7.93;;;;;;;5.63;69.05;99257.47;4881364;29;20028;-80
2021/01/06 05:27:11;;;;;;;16.15;7.97;;;;;;;5.63;69.56;99254.81;4861733;29;20118;-79
2021/01/06 05:29:43;;;;;;;14.35;7.95;;;;;;;5.59;69.04;99250.00;4884252;29;20029;-82
2021/01/06 05:32:33;;;;;;;16.00;8.15;;;;;;;5.59;68.96;99250.00;4882748;29;20064;-82
2021/01/06 05:35:10;;;;;;;6.85;4.57;;;;;;;5.56;68.63;99253.13;4883923;29;20055;-78
2021/01/06 05:37:35;;;;;;;17.05;8.15;;;;;;;5.54;68.15;99262.38;4893794;29;20398;-77
2021/01/06 05:40:07;;;;;;;13.10;7.22;;;;;;;5.52;68.10;99267.91;4884153;29;20044;-79
2021/01/06 05:42:41;;;;;;;18.15;9.57;;;;;;;5.48;68.54;99268.63;4880316;29;20049;-79
2021/01/06 05:45:16;;;;;;;27.35;11.48;;;;;;;5.45;68.67;99267.25;4895332;29;20481;-82
2021/01/06 05:47:57;;;;;;;23.38;11.07;;;;;;;5.42;69.39;99276.50;4898662;29;20144;-82
2021/01/06 05:50:32;;;;;;;11.50;7.78;;;;;;;5.37;69.13;99273.75;4883005;29;20029;-82
2021/01/06 05:53:05;;;;;;;17.23;7.95;;;;;;;5.35;69.62;99275.81;4870872;29;20032;-82
2021/01/06 05:55:35;;;;;;;15.93;8.43;;;;;;;5.35;69.21;99272.38;4886227;29;20100;-82
2021/01/06 05:58:46;;;;;;;10.95;5.07;;;;;;;5.35;69.07;99280.31;4867733;29;20688;-82
2021/01/06 06:01:39;;;;;;;10.93;6.75;;;;;;;5.34;69.18;99284.81;4810740;29;20118;-82
2021/01/06 06:04:29;;;;;;;14.52;7.50;;;;;;;5.31;69.23;99284.47;4812172;29;20026;-82
2021/01/06 06:07:40;;;;;;;23.08;6.60;;;;;;;5.32;68.75;99281.56;4876160;29;20060;-82
2021/01/06 06:10:43;;;;;;;9.60;5.07;;;;;;;5.28;68.32;99281.28;4811909;29;20034;-82
2021/01/06 06:13:46;;;;;;;23.98;7.40;;;;;;;5.25;69.24;99289.69;4885837;29;20123;-82
2021/01/06 06:16:44;;;;;;;16.58;7.88;;;;;;;5.26;68.79;99298.44;4884507;29;20028;-82
2021/01/06 06:19:38;;;;;;;13.32;6.32;;;;;;;5.28;68.94;99294.53;4885220;29;20250;-82
2021/01/06 06:22:22;;;;;;;18.85;7.07;;;;;;;5.31;68.90;99290.59;4883721;29;20039;-82
2021/01/06 06:25:17;;;;;;;35.97;13.73;;;;;;;5.35;69.20;99296.25;4884125;29;20028;-81
2021/01/06 06:27:59;;;;;;;21.60;10.93;;;;;;;5.39;69.47;99287.56;4883906;29;20517;-81
2021/01/06 06:30:51;;;;;;;22.10;10.68;;;;;;;5.48;69.58;99295.97;4884127;29;20160;-81
2021/01/06 06:33:30;;;;;;;18.42;9.70;;;;;;;5.51;69.74;99289.38;4884341;29;20024;-81
2021/01/06 06:35:57;;;;;;;20.95;11.18;;;;;;;5.57;70.12;99297.19;4884421;29;20109;-81
2021/01/06 06:38:45;;;;;;;33.20;15.65;;;;;;;5.66;70.02;99294.16;4884166;29;20044;-81
2021/01/06 06:41:23;;;;;;;39.80;17.83;;;;;;;5.72;69.91;99294.00;4870088;29;20179;-81
2021/01/06 06:44:13;;;;;;;42.53;21.83;;;;;;;5.79;69.74;99293.88;4884260;29;20031;-82
2021/01/06 06:47:14;;;;;;;39.22;21.70;;;;;;;5.84;70.06;99293.97;4883455;29;20048;-81
2021/01/06 06:50:14;;;;;;;39.15;18.58;;;;;;;5.91;70.15;99297.28;4882816;29;20062;-81
2021/01/06 06:53:03;;;;;;;37.80;20.58;;;;;;;5.97;70.17;99287.56;4884142;29;20368;-81
2021/01/06 06:55:32;;;;;;;;;;;;;;;6.04;69.90;99288.25;4884629;29;20020;-80
2021/01/06 06:58:16;;;;;;;26.08;14.00;;;;;;;6.07;70.23;99295.72;4885466;29;19918;-80
2021/01/06 07:00:41;;;;;;;31.77;17.08;;;;;;;6.15;69.61;99306.97;4884156;29;20112;-80
2021/01/06 07:03:07;;;;;;;26.45;14.23;;;;;;;6.22;70.05;99323.56;4882889;29;20489;-81
2021/01/06 07:05:56;;;;;;;24.38;13.50;;;;;;;6.30;69.58;99315.22;4883252;29;20492;-81
2021/01/06 07:08:38;;;;;;;26.13;12.32;;;;;;;6.37;69.93;99315.03;4886296;29;20044;-81
2021/01/06 07:11:17;;;;;;;20.33;8.93;;;;;;;6.48;69.60;99319.50;4883359;29;20028;-80
2021/01/06 07:13:44;;;;;;;23.77;13.02;;;;;;;6.57;69.73;99322.53;4884164;29;20028;-81
2021/01/06 07:16:27;;;;;;;31.83;15.02;;;;;;;6.65;68.83;99313.34;4883982;29;20024;-80
2021/01/06 07:18:53;;;;;;;33.03;15.43;;;;;;;6.72;69.18;99322.75;4883647;29;20021;-81
2021/01/06 07:21:31;;;;;;;30.90;16.70;;;;;;;6.77;68.76;99322.03;4883513;29;20025;-80
2021/01/06 07:23:59;;;;;;;24.48;14.75;;;;;;;6.85;68.77;99332.25;4882694;29;20033;-80
2021/01/06 07:26:29;;;;;;;41.33;20.35;;;;;;;6.90;69.20;99336.84;4883093;29;20044;-81
2021/01/06 07:29:04;;;;;;;30.17;14.10;;;;;;;6.95;68.94;99333.47;4883600;29;20017;-81
2021/01/06 07:31:38;;;;;;;30.13;14.40;;;;;;;6.99;69.19;99340.69;4883800;29;20028;-81
2021/01/06 07:34:07;;;;;;;27.58;13.55;;;;;;;7.01;69.04;99332.47;4883629;29;20020;-81
2021/01/06 07:36:46;;;;;;;16.95;8.98;;;;;;;7.10;69.06;99340.84;4884613;29;20029;-80
2021/01/06 07:39:28;;;;;;;15.77;8.32;;;;;;;7.17;68.89;99330.81;4883775;29;20549;-81
2021/01/06 07:41:54;;;;;;;20.20;9.82;;;;;;;7.21;68.91;99327.44;4884905;29;20040;-81
2021/01/06 07:44:27;;;;;;;15.25;9.60;;;;;;;7.26;69.08;99318.69;4883766;29;20036;-81
2021/01/06 07:46:55;;;;;;;17.58;9.20;;;;;;;7.31;69.11;99326.75;4882274;29;20033;-80
2021/01/06 07:49:40;;;;;;;19.67;10.57;;;;;;;7.36;69.55;99326.00;4881937;29;20035;-80
2021/01/06 07:52:14;;;;;;;19.50;9.45;;;;;;;7.41;69.75;99319.94;4882392;29;20032;-80
2021/01/06 07:54:47;;;;;;;16.30;9.77;;;;;;;7.44;69.82;99328.22;4882015;29;20032;-81
2021/01/06 07:57:44;;;;;;;19.73;9.55;;;;;;;7.51;69.51;99328.06;4882638;29;20033;-80
2021/01/06 08:00:15;;;;;;;20.05;9.90;;;;;;;7.55;69.62;99321.16;4855640;29;20426;-80
2021/01/06 08:02:55;;;;;;;16.17;7.03;;;;;;;7.61;69.16;99330.03;4884970;29;20031;-80
2021/01/06 08:05:33;;;;;;;11.65;6.78;;;;;;;7.68;69.14;99330.63;4881873;29;20040;-80
2021/01/06 08:08:14;;;;;;;12.10;6.17;;;;;;;7.77;68.72;99339.78;4881928;29;20039;-81
2021/01/06 08:10:41;;;;;;;10.27;7.07;;;;;;;7.86;68.77;99345.47;4882496;29;20037;-80
2021/01/06 08:13:12;;;;;;;10.48;5.93;;;;;;;7.91;68.58;99328.72;4881811;29;20032;-80
2021/01/06 08:15:39;;;;;;;14.02;6.18;;;;;;;8.01;68.06;99339.50;4882946;29;20033;-81
2021/01/06 08:18:10;;;;;;;7.78;5.22;;;;;;;8.10;68.15;99345.16;4882393;29;20033;-80
2021/01/06 08:21:02;;;;;;;8.55;5.60;;;;;;;8.17;68.21;99338.56;4882836;29;20028;-81
2021/01/06 08:23:40;;;;;;;6.65;4.45;;;;;;;8.28;67.71;99333.34;4881524;29;20029;-80
2021/01/06 08:26:19;;;;;;;6.47;4.28;;;;;;;8.35;67.57;99344.59;4882835;29;20032;-80
2021/01/06 08:28:44;;;;;;;7.72;4.03;;;;;;;8.42;67.70;99339.88;4882123;29;20035;-80
2021/01/06 08:31:21;;;;;;;9.52;4.55;;;;;;;8.49;67.54;99342.34;4881826;29;20029;-80
2021/01/06 08:33:52;;;;;;;10.30;4.63;;;;;;;8.57;67.36;99344.53;4881997;29;20028;-81
2021/01/06 08:36:24;;;;;;;10.65;5.30;;;;;;;8.63;67.15;99337.38;4882306;29;20033;-81
2021/01/06 08:39:06;;;;;;;12.40;5.65;;;;;;;8.69;67.05;99323.03;4881327;29;20362;-80
2021/01/06 08:41:32;;;;;;;11.00;5.40;;;;;;;8.79;66.37;99327.63;4881771;29;20405;-80
2021/01/06 08:43:59;;;;;;;8.48;4.50;;;;;;;8.86;66.27;99319.38;4881213;29;20096;-81
2021/01/06 08:46:30;;;;;;;6.15;4.35;;;;;;;8.94;66.35;99324.25;4880814;29;20453;-81
2021/01/06 08:49:36;;;;;;;11.48;4.82;;;;;;;9.03;65.91;99328.00;4880485;29;20125;-81
2021/01/06 08:52:16;;;;;;;7.07;4.55;;;;;;;9.10;65.35;99322.47;4880545;29;20037;-81
2021/01/06 08:55:07;;;;;;;9.15;4.97;;;;;;;9.20;65.66;99332.38;4881448;29;20100;-81
2021/01/06 08:57:37;;;;;;;9.00;5.00;;;;;;;9.25;65.32;99316.38;4868174;29;20501;-80
2021/01/06 09:00:15;;;;;;;10.20;4.78;;;;;;;9.34;65.42;99322.84;4881107;29;20029;-81
2021/01/06 09:02:48;;;;;;;11.43;5.03;;;;;;;9.41;64.83;99326.06;4881087;29;20024;-81
2021/01/06 09:05:35;;;;;;;16.92;6.22;;;;;;;9.51;64.61;99332.50;4880278;29;20478;-81
2021/01/06 09:08:01;;;;;;;8.73;5.65;;;;;;;9.58;65.12;99330.41;4881051;29;20522;-81
2021/01/06 09:10:36;;;;;;;11.13;6.18;;;;;;;9.56;64.47;99327.19;4879804;29;20478;-80
2021/01/06 09:13:08;;;;;;;8.73;5.85;;;;;;;9.49;64.42;99332.78;4880793;29;20029;-82
2021/01/06 09:15:40;;;;;;;9.93;6.55;;;;;;;9.45;64.88;99340.50;4880522;29;20051;-81
2021/01/06 09:18:13;;;;;;;11.98;6.57;;;;;;;9.31;64.46;99334.03;4881427;29;20029;-80
2021/01/06 09:21:04;;;;;;;10.43;6.78;;;;;;;9.26;65.34;99344.69;4882475;29;20554;-81
2021/01/06 09:23:31;;;;;;;11.50;6.47;;;;;;;9.22;64.93;99335.59;4882004;29;20036;-81
2021/01/06 09:25:59;;;;;;;8.85;6.03;;;;;;;9.04;64.77;99334.97;4882285;29;20028;-81
2021/01/06 09:28:26;;;;;;;12.30;5.95;;;;;;;8.94;64.39;99348.25;4882709;29;20388;-81
2021/01/06 09:30:52;;;;;;;8.48;6.40;;;;;;;8.68;64.22;99344.59;4883655;29;20029;-81
2021/01/06 09:33:23;;;;;;;9.55;6.80;;;;;;;8.57;64.55;99338.38;4887201;29;20474;-81
2021/01/06 09:35:48;;;;;;;8.15;6.15;;;;;;;8.49;65.10;99335.16;4885235;29;20029;-81
2021/01/06 09:38:39;;;;;;;13.27;6.68;;;;;;;8.48;65.03;99338.06;4884590;29;20017;-80
2021/01/06 09:41:08;;;;;;;10.32;6.25;;;;;;;8.32;65.13;99319.28;4888753;29;20020;-81
2021/01/06 09:43:48;;;;;;;10.20;6.50;;;;;;;8.30;65.49;99320.56;4872718;29;20410;-81
2021/01/06 09:46:17;;;;;;;9.25;6.18;;;;;;;8.29;66.14;99318.97;4870600;29;20092;-82
2021/01/06 09:48:48;;;;;;;13.20;7.28;;;;;;;8.24;66.23;99322.38;4868614;29;20052;-80
2021/01/06 09:51:18;;;;;;;11.52;7.00;;;;;;;8.21;66.72;99314.09;4861565;29;20466;-80
2021/01/06 09:53:44;;;;;;;12.75;6.57;;;;;;;8.15;67.30;99322.06;4861838;29;20029;-81
2021/01/06 09:56:15;;;;;;;13.63;7.40;;;;;;;8.20;67.58;99315.16;4878010;29;20076;-80
2021/01/06 09:58:41;;;;;;;12.15;7.38;;;;;;;8.26;67.38;99316.78;4877673;29;20033;-81
2021/01/06 10:01:06;;;;;;;9.35;6.07;;;;;;;8.32;67.42;99313.13;4862063;29;20032;-80
2021/01/06 10:03:37;;;;;;;9.25;5.55;;;;;;;8.35;66.55;99312.63;4861302;29;20403;-80
2021/01/06 10:06:41;;;;;;;9.65;5.88;;;;;;;8.37;67.34;99317.69;4861917;29;20033;-80
2021/01/06 10:09:25;;;;;;;16.83;7.45;;;;;;;8.37;67.06;99312.34;4833014;29;20037;-80
2021/01/06 10:11:56;;;;;;;13.50;7.50;;;;;;;8.42;67.02;99312.41;4860987;29;20064;-80
2021/01/06 10:14:25;;;;;;;10.40;6.30;;;;;;;8.49;67.07;99305.03;4860715;29;20056;-80
2021/01/06 10:16:56;;;;;;;12.40;6.13;;;;;;;8.54;67.21;99293.59;4860895;29;20036;-80
2021/01/06 10:19:34;;;;;;;9.20;5.53;;;;;;;8.63;66.90;99297.41;4860449;29;20119;-80
2021/01/06 10:22:19;;;;;;;8.18;5.70;;;;;;;8.68;66.10;99288.59;4860412;29;20037;-80
2021/01/06 10:24:45;;;;;;;8.23;5.85;;;;;;;8.70;66.21;99297.94;4860487;29;20630;-81
2021/01/06 10:27:33;;;;;;;9.15;5.50;;;;;;;8.73;66.08;99291.31;4860529;29;20133;-80
2021/01/06 10:30:09;;;;;;;9.70;6.25;;;;;;;8.72;66.46;99285.19;4860436;29;20048;-80
2021/01/06 10:32:46;;;;;;;12.45;7.45;;;;;;;8.68;67.17;99294.75;4860428;29;20101;-80
2021/01/06 10:35:36;;;;;;;10.85;7.75;;;;;;;8.63;67.41;99286.72;4861610;29;20036;-80
2021/01/06 10:38:24;;;;;;;12.05;5.75;;;;;;;8.55;66.43;99276.53;4861408;29;20025;-81
2021/01/06 10:41:14;;;;;;;8.00;6.05;;;;;;;8.58;66.88;99274.16;4860318;29;20493;-80
2021/01/06 10:43:50;;;;;;;11.30;6.47;;;;;;;8.59;66.98;99270.44;4852501;29;20544;-80
2021/01/06 10:46:42;;;;;;;9.43;5.80;;;;;;;8.57;67.28;99272.56;4860922;29;20079;-80
2021/01/06 10:49:29;;;;;;;9.18;6.22;;;;;;;8.58;67.55;99273.34;4863504;29;20036;-80
2021/01/06 10:52:00;;;;;;;14.20;6.15;;;;;;;8.58;67.57;99271.50;4848380;29;20036;-80
2021/01/06 10:54:41;;;;;;;11.40;7.05;;;;;;;8.61;67.14;99262.97;4863275;29;20029;-80
2021/01/06 10:57:15;;;;;;;9.07;6.70;;;;;;;8.61;67.65;99248.84;4863731;29;20029;-80
2021/01/06 11:00:05;;;;;;;10.15;5.85;;;;;;;8.75;67.12;99255.34;4863224;29;20128;-80
2021/01/06 11:02:42;;;;;;;8.68;5.50;;;;;;;8.78;66.51;99246.81;4863079;29;20025;-80
2021/01/06 11:05:31;;;;;;;11.85;5.75;;;;;;;8.81;67.12;99246.31;4863106;29;20064;-80
2021/01/06 11:08:12;;;;;;;8.88;6.30;;;;;;;8.83;67.58;99250.59;4863844;29;20394;-80
2021/01/06 11:11:02;;;;;;;13.05;6.75;;;;;;;8.87;67.05;99246.31;4862888;29;20079;-80
2021/01/06 11:14:00;;;;;;;15.68;7.43;;;;;;;8.89;66.76;99233.53;4862922;29;20029;-80
2021/01/06 11:16:37;;;;;;;8.38;6.20;;;;;;;8.93;65.62;99229.28;4855463;29;20037;-80
2021/01/06 11:19:03;;;;;;;8.52;5.43;;;;;;;8.93;66.25;99227.41;4863072;29;20033;-80
2021/01/06 11:21:41;;;;;;;8.07;5.30;;;;;;;8.97;65.57;99235.69;4863096;29;20032;-81
2021/01/06 11:24:44;;;;;;;6.45;4.93;;;;;;;9.01;65.32;99241.31;4862899;29;20025;-80
2021/01/06 11:27:41;;;;;;;9.93;5.80;;;;;;;9.05;65.96;99239.75;4863290;29;20115;-80
2021/01/06 11:30:31;;;;;;;7.60;5.10;;;;;;;9.08;65.63;99240.03;4863323;29;20493;-80
2021/01/06 11:33:15;;;;;;;12.60;5.50;;;;;;;9.12;65.73;99238.44;4863321;29;20028;-80
2021/01/06 11:36:06;;;;;;;7.95;5.88;;;;;;;9.16;66.86;99245.91;4863031;29;20040;-80
2021/01/06 11:38:38;;;;;;;9.70;6.00;;;;;;;9.21;66.88;99243.25;4828146;29;20064;-80
2021/01/06 11:41:06;;;;;;;9.32;6.28;;;;;;;9.25;66.96;99242.47;4863243;29;20059;-80
2021/01/06 11:43:58;;;;;;;6.47;4.53;;;;;;;9.31;65.71;99237.16;4880447;29;20104;-81
2021/01/06 11:47:10;;;;;;;7.40;5.55;;;;;;;9.33;66.48;99227.81;4881016;29;20505;-80
2021/01/06 11:49:59;;;;;;;8.48;4.75;;;;;;;9.40;66.69;99219.56;4806439;29;20496;-80
2021/01/06 11:52:46;;;;;;;8.85;4.55;;;;;;;9.44;65.68;99215.31;4881268;29;20043;-81
2021/01/06 11:55:33;;;;;;;8.93;5.13;;;;;;;9.48;65.67;99216.38;4881036;29;20464;-81
2021/01/06 11:58:14;;;;;;;11.88;7.47;;;;;;;9.56;65.56;99207.84;4880548;29;20024;-81
2021/01/06 12:00:43;;;;;;;9.38;6.38;;;;;;;9.65;65.11;99200.09;4880595;29;20067;-81
2021/01/06 12:03:11;;;;;;;;;;;;;;;9.70;64.95;99207.31;4881211;29;20032;-80
2021/01/06 12:05:58;;;;;;;10.18;5.85;;;;;;;9.76;64.83;99198.25;4880400;29;19979;-81
2021/01/06 12:08:52;;;;;;;13.88;6.65;;;;;;;9.83;64.63;99198.78;4880317;29;20443;-81
2021/01/06 12:11:28;;;;;;;11.85;5.70;;;;;;;9.94;64.61;99202.25;4880303;29;20029;-81
2021/01/06 12:14:12;;;;;;;7.65;5.68;;;;;;;9.99;63.86;99193.44;4880298;29;20114;-81
2021/01/06 12:16:58;;;;;;;10.10;5.88;;;;;;;10.04;63.32;99193.44;4880143;29;20028;-81
2021/01/06 12:19:53;;;;;;;7.97;4.93;;;;;;;10.03;63.63;99192.66;4880335;29;20033;-80
2021/01/06 12:22:20;;;;;;;9.63;5.45;;;;;;;10.02;63.46;99192.91;4879914;29;20393;-81
2021/01/06 12:24:50;;;;;;;12.07;6.30;;;;;;;10.04;64.42;99191.56;4880345;29;20039;-81
2021/01/06 12:27:26;;;;;;;6.72;5.03;;;;;;;10.01;64.34;99194.78;4880820;29;20033;-81
2021/01/06 12:29:58;;;;;;;7.70;5.38;;;;;;;9.98;64.56;99194.50;4880642;29;20037;-81
2021/01/06 12:32:24;;;;;;;7.95;5.95;;;;;;;9.94;65.15;99195.03;4879921;29;20030;-81
2021/01/06 12:34:53;;;;;;;9.38;5.78;;;;;;;9.91;65.45;99200.94;4880514;29;20020;-81
2021/01/06 12:37:30;;;;;;;10.13;6.30;;;;;;;9.91;65.50;99210.78;4880550;29;20027;-81
2021/01/06 12:39:58;;;;;;;9.52;6.00;;;;;;;9.91;65.72;99208.13;4880243;29;20032;-81
2021/01/06 12:42:51;;;;;;;9.98;6.32;;;;;;;9.89;65.80;99210.28;4879705;29;20052;-81
2021/01/06 12:45:33;;;;;;;10.73;6.15;;;;;;;9.88;65.88;99206.78;4880373;29;20029;-81